Página principal
METAR-TAF:

METAR-TAF

Aeroportos :

Skelton Airport

Eureka, Alasca, Estados Unidos

latitude: 61-56N, longitude: 147-10W, altura: 1002 m

Observação actual do tempo

O boletim foi feito há 1 hora e 0 minutos, às 22:56 UTC
Vento 5 kt de su-sudoeste
Temperatura 12°C
Humidade 100%
Pressão 1017 hPa
Visibilidade: 16.1 km
Encobertoa uma altura de 6500 ft
chuva fraca

METAR: PAZK 222256Z AUTO 21005KT 10SM -RA OVC065 12/12 A3003 RMK AO2 RAB28 SLP183 P0000 T01220117 $

Hora: 15:56 (23:56 UTC)


TAF: em falta

Observações e previsões do tempo de mais de 4000 aeroportos (mensagens METAR e TAF).

As estações disponíveis são os pontos amarelos e vermelhos sobre o mapa.

Mova o rato sobre o mapa para ver o nome da estação.

Depois clique no ponto para visualizar as observações e previsões meteorológicas.

Para alterar o mapa : clique nos botões verdes com uma cruz preta para aumentar o zoom; no botão verde com uma pitada de zoom; ou nas setas verdes para mapas adjacentes.


METAR-TAF: